Time;durP1;ratioP1;P1;durP2;ratioP2;P2;SDS_P1;SDS_P2;PMS_P1;PMS_P2;Temp;Humidity;BMP_temperature;BMP_pressure;BME280_temperature;BME280_humidity;BME280_pressure;Samples;Min_cycle;Max_cycle;Signal;HPM_P1;HPM_P2
2021/12/16 07:14:50;;;;;;;11.73;7.40;;;;;;;;;;5019474;28;20042;-91
2021/12/16 07:17:26;;;;;;;16.88;9.02;;;;;;;;;;4986092;28;20052;-89
2021/12/16 07:19:51;;;;;;;16.15;8.75;;;;;;;;;;4986063;28;20034;-88
2021/12/16 07:22:31;;;;;;;12.80;7.20;;;;;;;;;;4984611;28;20092;-89
2021/12/16 07:25:37;;;;;;;11.45;7.00;;;;;;;;;;4919973;29;20052;-90
2021/12/16 07:28:14;;;;;;;12.45;7.22;;;;;;;;;;4904142;29;20059;-90
2021/12/16 07:30:40;;;;;;;11.23;6.75;;;;;;;;;;4887246;29;20088;-89
2021/12/16 07:33:05;;;;;;;10.85;6.78;;;;;;;;;;4888848;29;20028;-90
2021/12/16 07:35:30;;;;;;;12.32;7.38;;;;;;;;;;4904004;29;20139;-89
2021/12/16 07:38:07;;;;;;;14.82;7.57;;;;;;;;;;4890793;29;20051;-91
2021/12/16 07:44:09;;;;;;;12.00;6.63;;;;;;;;;;4846009;29;20086;-90
2021/12/16 07:50:01;;;;;;;13.52;7.50;;;;;;;;;;4836355;29;20533;-89
2021/12/16 07:53:11;;;;;;;14.73;7.72;;;;;;;;;;4846264;29;20373;-91
2021/12/16 07:58:42;;;;;;;17.98;8.68;;;;;;;;;;4845788;29;20049;-90
2021/12/16 08:01:08;;;;;;;20.80;8.93;;;;;;;;;;4829356;29;20062;-90
2021/12/16 08:03:37;;;;;;;19.08;9.93;;;;;;;;;;4889159;29;20041;-87
2021/12/16 08:06:05;;;;;;;18.83;10.35;;;;;;;;;;4900263;29;20076;-89
2021/12/16 08:08:30;;;;;;;16.02;7.47;;;;;;;;;;4884380;29;20052;-89
2021/12/16 08:10:58;;;;;;;12.27;7.40;;;;;;;;;;4894698;29;20047;-89
2021/12/16 08:13:26;;;;;;;16.08;8.25;;;;;;;;;;4922648;29;20432;-88
2021/12/16 08:15:51;;;;;;;13.27;8.07;;;;;;;;;;4938183;29;20456;-89
2021/12/16 08:18:17;;;;;;;13.88;8.57;;;;;;;;;;4922387;29;20561;-89
2021/12/16 08:20:45;;;;;;;13.25;8.20;;;;;;;;;;4978386;28;20045;-89
2021/12/16 08:23:10;;;;;;;10.77;6.53;;;;;;;;;;5000573;28;20501;-89
2021/12/16 08:25:39;;;;;;;14.52;8.70;;;;;;;;;;5016888;28;20112;-89
2021/12/16 08:28:08;;;;;;;14.93;8.52;;;;;;;;;;4999891;28;20033;-89
2021/12/16 08:30:34;;;;;;;17.80;9.13;;;;;;;;;;4984384;28;20034;-88
2021/12/16 08:33:04;;;;;;;14.48;8.35;;;;;;;;;;5000692;28;20037;-89
2021/12/16 08:35:29;;;;;;;17.20;9.80;;;;;;;;;;4983785;28;20045;-89
2021/12/16 08:37:55;;;;;;;15.40;9.13;;;;;;;;;;5001564;28;20036;-89
2021/12/16 08:40:20;;;;;;;14.70;8.70;;;;;;;;;;4985180;28;20037;-90
2021/12/16 08:42:46;;;;;;;13.63;7.97;;;;;;;;;;4982998;28;20050;-89
2021/12/16 08:45:11;;;;;;;18.90;9.70;;;;;;;;;;4982810;28;20495;-89
2021/12/16 08:47:37;;;;;;;19.33;9.30;;;;;;;;;;5000299;28;20069;-89
2021/12/16 08:50:04;;;;;;;17.13;9.38;;;;;;;;;;4999563;28;20152;-89
2021/12/16 08:52:58;;;;;;;;;;;;;;;;;;;;;
2021/12/16 08:58:41;;;;;;;18.23;9.88;;;;;;;;;;5016494;28;20088;-89
2021/12/16 09:01:08;;;;;;;15.43;9.57;;;;;;;;;;4963349;28;20070;-88
2021/12/16 09:03:36;;;;;;;18.70;10.15;;;;;;;;;;5005513;28;20030;-89
2021/12/16 09:08:54;;;;;;;13.55;7.80;;;;;;;;;;5020742;28;20073;-88
2021/12/16 09:11:22;;;;;;;10.63;6.65;;;;;;;;;;5019382;28;20026;-88
2021/12/16 09:13:47;;;;;;;12.07;7.28;;;;;;;;;;4985939;28;20038;-89
2021/12/16 09:16:13;;;;;;;12.20;6.82;;;;;;;;;;4986519;28;20037;-91
2021/12/16 09:18:55;;;;;;;10.73;6.20;;;;;;;;;;4986705;28;20076;-89
2021/12/16 09:21:24;;;;;;;11.75;6.30;;;;;;;;;;4985175;28;20030;-89
2021/12/16 09:23:49;;;;;;;11.15;5.80;;;;;;;;;;5001549;28;20046;-89
2021/12/16 09:26:15;;;;;;;11.02;5.75;;;;;;;;;;5001802;28;20032;-89
2021/12/16 09:28:42;;;;;;;12.52;5.93;;;;;;;;;;5001588;28;20037;-89
2021/12/16 09:31:12;;;;;;;7.15;4.65;;;;;;;;;;5019172;28;20038;-90
2021/12/16 09:33:41;;;;;;;7.25;4.68;;;;;;;;;;4984512;28;20101;-90
2021/12/16 09:36:27;;;;;;;11.38;5.75;;;;;;;;;;5000253;28;20506;-90
2021/12/16 09:39:02;;;;;;;7.47;4.93;;;;;;;;;;4986084;28;20033;-90
2021/12/16 09:41:36;;;;;;;11.25;5.22;;;;;;;;;;4985373;28;20034;-90
2021/12/16 09:44:05;;;;;;;9.73;5.35;;;;;;;;;;5000511;28;20033;-90
2021/12/16 09:46:30;;;;;;;11.32;5.57;;;;;;;;;;4983795;28;20033;-89
2021/12/16 09:48:56;;;;;;;10.93;6.30;;;;;;;;;;5018068;28;20064;-89
2021/12/16 09:51:25;;;;;;;9.98;5.40;;;;;;;;;;4984605;28;20041;-90
2021/12/16 09:54:15;;;;;;;11.17;6.00;;;;;;;;;;4935880;28;20134;-88
2021/12/16 09:56:40;;;;;;;12.13;6.35;;;;;;;;;;5007904;28;20042;-89
2021/12/16 09:59:06;;;;;;;9.73;5.45;;;;;;;;;;5019305;28;20037;-89
2021/12/16 10:01:32;;;;;;;9.40;5.38;;;;;;;;;;5001388;28;20030;-88
2021/12/16 10:04:02;;;;;;;11.13;5.88;;;;;;;;;;4985719;28;20072;-89
2021/12/16 10:06:27;;;;;;;8.90;5.43;;;;;;;;;;4996347;28;20093;-89
2021/12/16 10:08:53;;;;;;;11.35;6.28;;;;;;;;;;4982271;28;20006;-86
2021/12/16 10:11:18;;;;;;;12.52;6.47;;;;;;;;;;5001501;28;20026;-90
2021/12/16 10:13:58;;;;;;;10.23;5.68;;;;;;;;;;5002824;28;20441;-88
2021/12/16 10:19:07;;;;;;;10.25;5.90;;;;;;;;;;5001294;28;20033;-89
2021/12/16 10:21:32;;;;;;;12.20;6.10;;;;;;;;;;4983325;28;20379;-88
2021/12/16 10:23:58;;;;;;;10.43;5.75;;;;;;;;;;5000979;28;20050;-88
2021/12/16 10:26:23;;;;;;;11.55;6.53;;;;;;;;;;4983429;28;20061;-88
2021/12/16 10:28:49;;;;;;;12.93;6.15;;;;;;;;;;5001180;28;20071;-88
2021/12/16 10:31:14;;;;;;;9.98;5.45;;;;;;;;;;4967669;28;20044;-88
2021/12/16 10:33:39;;;;;;;7.75;4.85;;;;;;;;;;4985134;28;20058;-89
2021/12/16 10:36:05;;;;;;;7.93;5.13;;;;;;;;;;4983780;28;20395;-88
2021/12/16 10:38:30;;;;;;;7.65;4.75;;;;;;;;;;4983290;28;20113;-87
2021/12/16 10:40:55;;;;;;;7.80;4.28;;;;;;;;;;5000795;28;20041;-87
2021/12/16 10:43:20;;;;;;;8.20;4.68;;;;;;;;;;4983781;28;20046;-88
2021/12/16 10:45:46;;;;;;;7.03;4.15;;;;;;;;;;4982602;28;20049;-87
2021/12/16 10:48:11;;;;;;;6.38;4.13;;;;;;;;;;4983120;28;20027;-88
2021/12/16 10:50:36;;;;;;;5.45;3.53;;;;;;;;;;4982378;28;20104;-89
2021/12/16 10:53:02;;;;;;;6.03;3.20;;;;;;;;;;4984862;28;20030;-89
2021/12/16 10:55:27;;;;;;;7.40;3.50;;;;;;;;;;4982767;28;20034;-90
2021/12/16 10:57:52;;;;;;;6.85;3.70;;;;;;;;;;4982814;28;20117;-88
2021/12/16 11:00:18;;;;;;;5.28;3.60;;;;;;;;;;4983309;28;20030;-89
2021/12/16 11:02:44;;;;;;;5.35;3.05;;;;;;;;;;4999248;28;20040;-88
2021/12/16 11:05:10;;;;;;;5.13;3.03;;;;;;;;;;4997718;28;20041;-88
2021/12/16 11:07:35;;;;;;;4.82;3.30;;;;;;;;;;4982731;28;20026;-89
2021/12/16 11:10:00;;;;;;;6.85;3.20;;;;;;;;;;4988873;28;20038;-88
2021/12/16 11:12:26;;;;;;;5.55;3.00;;;;;;;;;;4988613;28;20042;-89
2021/12/16 11:14:51;;;;;;;4.43;2.90;;;;;;;;;;4997406;28;20117;-89
2021/12/16 11:17:17;;;;;;;5.97;3.80;;;;;;;;;;5002573;28;20052;-88
2021/12/16 11:19:42;;;;;;;5.35;3.63;;;;;;;;;;5002366;28;20037;-88
2021/12/16 11:22:08;;;;;;;6.55;3.92;;;;;;;;;;4983705;28;20405;-87
2021/12/16 11:24:33;;;;;;;7.32;3.47;;;;;;;;;;5003255;28;20042;-88
2021/12/16 11:26:58;;;;;;;5.70;3.40;;;;;;;;;;5002900;28;20044;-89
2021/12/16 11:29:24;;;;;;;5.57;3.88;;;;;;;;;;5020552;28;20116;-89
2021/12/16 11:31:49;;;;;;;6.55;3.58;;;;;;;;;;5020787;28;20116;-88
2021/12/16 11:34:14;;;;;;;6.97;3.92;;;;;;;;;;5004191;28;20072;-88
2021/12/16 11:36:43;;;;;;;5.28;3.47;;;;;;;;;;4986797;28;20129;-89
2021/12/16 11:39:09;;;;;;;6.90;3.00;;;;;;;;;;5003153;28;20037;-89
2021/12/16 11:41:41;;;;;;;3.92;2.78;;;;;;;;;;5004694;28;20041;-89
2021/12/16 11:44:06;;;;;;;5.00;3.20;;;;;;;;;;5023120;28;20034;-88
2021/12/16 11:46:32;;;;;;;4.70;3.10;;;;;;;;;;4988049;28;20048;-89
2021/12/16 11:48:57;;;;;;;4.57;2.55;;;;;;;;;;5003834;28;20030;-89
2021/12/16 11:51:23;;;;;;;4.53;3.13;;;;;;;;;;4987908;28;20045;-89
2021/12/16 11:53:48;;;;;;;5.05;3.20;;;;;;;;;;4988244;28;20036;-88
2021/12/16 11:56:13;;;;;;;4.85;3.22;;;;;;;;;;4991813;28;20562;-90
2021/12/16 11:58:39;;;;;;;5.28;3.10;;;;;;;;;;5003308;28;20030;-89
2021/12/16 12:01:04;;;;;;;3.50;2.40;;;;;;;;;;5003484;28;20049;-89
2021/12/16 12:03:29;;;;;;;4.72;2.80;;;;;;;;;;4987519;28;20045;-89
2021/12/16 12:05:57;;;;;;;4.57;2.78;;;;;;;;;;4987252;28;20029;-89
2021/12/16 12:08:23;;;;;;;3.97;2.85;;;;;;;;;;4990727;28;20038;-88
2021/12/16 12:10:48;;;;;;;4.45;2.95;;;;;;;;;;5024350;28;20048;-90
2021/12/16 12:13:14;;;;;;;4.18;2.70;;;;;;;;;;4990364;28;20058;-89
2021/12/16 12:15:39;;;;;;;4.32;2.90;;;;;;;;;;5003938;28;20018;-89
2021/12/16 12:18:06;;;;;;;4.25;2.60;;;;;;;;;;4969424;28;20038;-88
2021/12/16 12:20:31;;;;;;;4.88;2.90;;;;;;;;;;5002172;28;20030;-90
2021/12/16 12:22:56;;;;;;;11.52;5.45;;;;;;;;;;4983155;28;20125;-89
2021/12/16 12:25:22;;;;;;;7.20;3.75;;;;;;;;;;4964389;28;20109;-87
2021/12/16 12:27:47;;;;;;;8.98;4.45;;;;;;;;;;4965093;28;20030;-90
2021/12/16 12:30:12;;;;;;;8.85;4.40;;;;;;;;;;5000851;28;20030;-91
2021/12/16 12:32:38;;;;;;;5.18;3.25;;;;;;;;;;4984042;28;20473;-88
2021/12/16 12:35:03;;;;;;;4.15;2.40;;;;;;;;;;4979254;28;20038;-88
2021/12/16 12:37:28;;;;;;;4.30;2.40;;;;;;;;;;4981784;28;20053;-88
2021/12/16 12:39:54;;;;;;;8.82;5.18;;;;;;;;;;4965555;28;20385;-89
2021/12/16 12:42:19;;;;;;;7.50;4.30;;;;;;;;;;4981251;28;20046;-89
2021/12/16 12:44:44;;;;;;;5.13;3.20;;;;;;;;;;4981182;28;20034;-88
2021/12/16 12:47:10;;;;;;;4.53;2.10;;;;;;;;;;4998352;28;20031;-89
2021/12/16 12:49:35;;;;;;;3.00;2.03;;;;;;;;;;4980770;28;20449;-89
2021/12/16 12:52:01;;;;;;;2.85;1.92;;;;;;;;;;4963828;28;20098;-88
2021/12/16 12:54:26;;;;;;;4.28;2.00;;;;;;;;;;4996843;28;20117;-89
2021/12/16 12:56:52;;;;;;;3.47;2.20;;;;;;;;;;4979119;28;20117;-89
2021/12/16 12:59:17;;;;;;;3.08;2.17;;;;;;;;;;4963202;28;20036;-89
2021/12/16 13:01:44;;;;;;;2.90;2.10;;;;;;;;;;4997213;28;20034;-89
2021/12/16 13:04:09;;;;;;;3.30;2.30;;;;;;;;;;4962991;28;20470;-89
2021/12/16 13:06:34;;;;;;;4.15;2.50;;;;;;;;;;4963659;28;20092;-88
2021/12/16 13:09:03;;;;;;;3.95;2.70;;;;;;;;;;4982155;28;20109;-87
2021/12/16 13:11:29;;;;;;;4.18;2.67;;;;;;;;;;4997236;28;20030;-88
2021/12/16 13:13:57;;;;;;;4.13;2.75;;;;;;;;;;4964140;28;20041;-89
2021/12/16 13:27:20;;;;;;;6.78;4.45;;;;;;;;;;4996749;28;20030;-88
2021/12/16 13:30:04;;;;;;;5.10;3.55;;;;;;;;;;4985894;28;20025;-88
2021/12/16 13:32:30;;;;;;;6.60;4.55;;;;;;;;;;4998942;28;20037;-88
2021/12/16 13:37:24;;;;;;;4.82;2.88;;;;;;;;;;5002410;28;20053;-89
2021/12/16 13:39:50;;;;;;;4.90;2.95;;;;;;;;;;5022624;28;20030;-90
2021/12/16 13:42:15;;;;;;;7.70;4.00;;;;;;;;;;4989851;28;20034;-91
2021/12/16 13:44:43;;;;;;;12.15;3.90;;;;;;;;;;5003701;28;20042;-90
2021/12/16 14:03:27;;;;;;;7.85;4.70;;;;;;;;;;5022863;28;20305;-90
2021/12/16 14:05:58;;;;;;;7.68;5.45;;;;;;;;;;5022616;28;20064;-90
2021/12/16 14:08:23;;;;;;;9.35;5.65;;;;;;;;;;5004891;28;20034;-89
2021/12/16 14:11:01;;;;;;;9.88;6.20;;;;;;;;;;4988600;28;20084;-91
2021/12/16 14:16:12;;;;;;;10.98;7.00;;;;;;;;;;5022234;28;20038;-90
2021/12/16 14:27:03;;;;;;;8.52;4.68;;;;;;;;;;5004187;28;20046;-90
2021/12/16 14:35:04;;;;;;;9.32;5.22;;;;;;;;;;4997890;28;20034;-89
2021/12/16 14:37:48;;;;;;;;;;;;;;;;;;4982911;28;20041;-89
2021/12/16 14:43:37;;;;;;;21.83;8.85;;;;;;;;;;4970990;28;19914;-89
2021/12/16 14:45:57;;;;;;;9.27;4.75;;;;;;;;;;4997288;28;20044;-89
2021/12/16 14:48:28;;;;;;;6.20;3.63;;;;;;;;;;4998336;28;20124;-90
2021/12/16 14:50:54;;;;;;;7.35;4.18;;;;;;;;;;4997165;28;20053;-89
2021/12/16 14:53:19;;;;;;;6.13;3.95;;;;;;;;;;4997033;28;20056;-89
2021/12/16 14:55:45;;;;;;;6.57;4.10;;;;;;;;;;5002667;28;20017;-88
2021/12/16 14:58:10;;;;;;;9.02;4.50;;;;;;;;;;4982771;28;20042;-91
2021/12/16 15:00:40;;;;;;;10.27;5.03;;;;;;;;;;5001477;28;20441;-89
2021/12/16 15:03:07;;;;;;;10.20;4.80;;;;;;;;;;5019122;28;20116;-89
2021/12/16 15:05:33;;;;;;;10.68;4.65;;;;;;;;;;5000396;28;20541;-91
2021/12/16 15:07:58;;;;;;;12.93;5.60;;;;;;;;;;5000650;28;20070;-90
2021/12/16 15:10:24;;;;;;;11.90;5.60;;;;;;;;;;5001789;28;20033;-89
2021/12/16 15:12:57;;;;;;;7.72;5.00;;;;;;;;;;5001512;28;20413;-89
2021/12/16 15:15:32;;;;;;;;;;;;;;;;;;5002103;28;20161;-87
2021/12/16 15:44:42;;;;;;;5.78;3.75;;;;;;;;;;5000317;28;20072;-89
2021/12/16 15:47:07;;;;;;;12.07;6.20;;;;;;;;;;5000115;28;20022;-88
2021/12/16 15:49:33;;;;;;;20.98;9.55;;;;;;;;;;5017991;28;20018;-89
2021/12/16 15:52:00;;;;;;;21.88;9.73;;;;;;;;;;5000486;28;20034;-88
2021/12/16 15:54:29;;;;;;;15.73;9.50;;;;;;;;;;4999708;28;20045;-91
2021/12/16 15:56:55;;;;;;;18.15;9.45;;;;;;;;;;4983516;28;20148;-90
2021/12/16 15:59:20;;;;;;;16.73;9.73;;;;;;;;;;5000358;28;20053;-90
2021/12/16 16:01:45;;;;;;;17.17;9.20;;;;;;;;;;4984039;28;20084;-89
2021/12/16 16:04:11;;;;;;;13.05;7.82;;;;;;;;;;5000259;28;20014;-89
2021/12/16 16:06:36;;;;;;;13.48;7.88;;;;;;;;;;4983891;28;20037;-89
2021/12/16 16:09:01;;;;;;;11.48;6.65;;;;;;;;;;5017431;28;20045;-89
2021/12/16 16:11:26;;;;;;;9.55;6.43;;;;;;;;;;4983814;28;20136;-88
2021/12/16 16:13:53;;;;;;;9.10;5.85;;;;;;;;;;4999969;28;20057;-89
2021/12/16 16:16:18;;;;;;;9.70;6.00;;;;;;;;;;4983719;28;20046;-88
2021/12/16 16:18:54;;;;;;;11.65;6.53;;;;;;;;;;4999770;28;20062;-88
2021/12/16 16:21:19;;;;;;;9.68;5.55;;;;;;;;;;5000699;28;20034;-88
2021/12/16 16:23:45;;;;;;;13.88;7.28;;;;;;;;;;5000967;28;20385;-88
2021/12/16 16:26:10;;;;;;;11.00;7.05;;;;;;;;;;5009816;28;20101;-87
2021/12/16 16:28:38;;;;;;;8.45;5.63;;;;;;;;;;4980927;28;20038;-89
2021/12/16 16:31:05;;;;;;;7.85;5.18;;;;;;;;;;4981133;28;20548;-90
2021/12/16 16:33:30;;;;;;;9.85;6.07;;;;;;;;;;4981347;28;20035;-90
2021/12/16 16:35:56;;;;;;;11.82;6.60;;;;;;;;;;4980488;28;20092;-90
2021/12/16 16:38:21;;;;;;;10.52;6.45;;;;;;;;;;4997663;28;20030;-90
2021/12/16 16:40:46;;;;;;;13.40;6.85;;;;;;;;;;4964725;28;20529;-89
2021/12/16 16:43:12;;;;;;;10.95;6.90;;;;;;;;;;4991823;28;20406;-90
2021/12/16 16:45:37;;;;;;;11.52;6.82;;;;;;;;;;4979568;28;20406;-90
2021/12/16 16:48:15;;;;;;;9.38;5.63;;;;;;;;;;4980847;28;20118;-89
2021/12/16 16:50:41;;;;;;;9.35;6.03;;;;;;;;;;4981687;28;20482;-89
2021/12/16 16:53:06;;;;;;;11.88;6.78;;;;;;;;;;4981821;28;20035;-89
2021/12/16 16:55:33;;;;;;;9.55;5.68;;;;;;;;;;4997642;28;20034;-89
2021/12/16 16:57:59;;;;;;;8.27;5.15;;;;;;;;;;4996818;28;20375;-89
2021/12/16 17:00:24;;;;;;;12.55;6.00;;;;;;;;;;4979874;28;20089;-89
2021/12/16 17:02:49;;;;;;;8.90;5.68;;;;;;;;;;4981046;28;20034;-89
2021/12/16 17:05:15;;;;;;;8.30;5.20;;;;;;;;;;4996971;28;20034;-90
2021/12/16 17:07:40;;;;;;;9.77;5.90;;;;;;;;;;4980054;28;20409;-89
2021/12/16 17:10:05;;;;;;;10.63;6.63;;;;;;;;;;4979576;28;20032;-90
2021/12/16 17:12:35;;;;;;;11.88;7.22;;;;;;;;;;4995561;28;20036;-89
2021/12/16 17:15:20;;;;;;;14.70;8.48;;;;;;;;;;4995089;28;20038;-89
2021/12/16 17:17:45;;;;;;;17.98;10.35;;;;;;;;;;4980296;28;20058;-88
2021/12/16 17:20:11;;;;;;;19.90;11.13;;;;;;;;;;4963297;28;20028;-88
2021/12/16 17:22:41;;;;;;;18.92;10.32;;;;;;;;;;4996556;28;20536;-89
2021/12/16 17:25:06;;;;;;;26.17;10.55;;;;;;;;;;4963333;28;20057;-88
2021/12/16 17:27:32;;;;;;;18.73;9.15;;;;;;;;;;4995579;28;20027;-88
2021/12/16 17:29:57;;;;;;;15.82;9.13;;;;;;;;;;4996396;28;20038;-88
2021/12/16 17:32:22;;;;;;;22.95;9.50;;;;;;;;;;4996826;28;20371;-88
2021/12/16 17:34:50;;;;;;;16.52;9.43;;;;;;;;;;4979323;28;20161;-88
2021/12/16 17:37:16;;;;;;;16.55;10.05;;;;;;;;;;4979722;28;20046;-88
2021/12/16 17:39:41;;;;;;;16.60;9.60;;;;;;;;;;4996612;28;20458;-89
2021/12/16 17:42:07;;;;;;;16.63;8.68;;;;;;;;;;4980793;28;20206;-88
2021/12/16 17:44:32;;;;;;;15.68;8.02;;;;;;;;;;4980660;28;20407;-88
2021/12/16 17:46:57;;;;;;;13.70;7.60;;;;;;;;;;4996870;28;20042;-88
2021/12/16 17:49:23;;;;;;;13.70;7.80;;;;;;;;;;4997658;28;20031;-88
2021/12/16 17:51:48;;;;;;;20.83;9.45;;;;;;;;;;4979812;28;20074;-91
2021/12/16 17:54:13;;;;;;;18.35;8.52;;;;;;;;;;4996245;28;20037;-90
2021/12/16 17:56:39;;;;;;;22.63;11.80;;;;;;;;;;4996942;28;20084;-89
2021/12/16 17:59:04;;;;;;;16.95;9.35;;;;;;;;;;4962925;28;20034;-89
2021/12/16 18:01:29;;;;;;;11.25;7.28;;;;;;;;;;4979552;28;20038;-89
2021/12/16 18:03:55;;;;;;;10.93;6.50;;;;;;;;;;4996300;28;20496;-89
2021/12/16 18:06:20;;;;;;;10.82;6.35;;;;;;;;;;4996591;28;20056;-89
2021/12/16 18:08:45;;;;;;;12.70;6.80;;;;;;;;;;4979099;28;20037;-89
2021/12/16 18:11:11;;;;;;;13.98;8.10;;;;;;;;;;4996292;28;20073;-89
2021/12/16 18:13:40;;;;;;;22.67;11.10;;;;;;;;;;4980152;28;20422;-89
2021/12/16 18:16:06;;;;;;;18.33;9.98;;;;;;;;;;4981893;28;20025;-88
2021/12/16 18:18:31;;;;;;;16.65;8.57;;;;;;;;;;4980016;28;20574;-88
2021/12/16 18:21:00;;;;;;;11.93;7.55;;;;;;;;;;4979461;28;20088;-88
2021/12/16 18:23:28;;;;;;;13.38;8.32;;;;;;;;;;4996716;28;20041;-88
2021/12/16 18:25:53;;;;;;;15.45;8.38;;;;;;;;;;4996513;28;20034;-90
2021/12/16 18:31:45;;;;;;;13.40;7.50;;;;;;;;;;4880067;29;20060;-90
2021/12/16 18:37:35;;;;;;;16.50;8.27;;;;;;;;;;4881471;29;20410;-90
2021/12/16 18:40:17;;;;;;;18.02;9.23;;;;;;;;;;4869283;29;20041;-89
2021/12/16 18:42:50;;;;;;;16.48;9.57;;;;;;;;;;4869491;29;20526;-89
2021/12/16 18:45:18;;;;;;;14.55;8.65;;;;;;;;;;4868482;29;20080;-89
2021/12/16 18:47:58;;;;;;;13.77;7.88;;;;;;;;;;4868098;29;20112;-90
2021/12/16 18:55:43;;;;;;;15.57;7.55;;;;;;;;;;4867633;29;20128;-89
2021/12/16 18:58:08;;;;;;;14.05;7.95;;;;;;;;;;4884210;29;20128;-89
2021/12/16 19:00:34;;;;;;;13.38;7.80;;;;;;;;;;4868245;29;20089;-89
2021/12/16 19:02:59;;;;;;;14.02;7.80;;;;;;;;;;4869067;29;20045;-91
2021/12/16 19:05:24;;;;;;;15.57;8.00;;;;;;;;;;4868720;29;20111;-89
2021/12/16 19:07:50;;;;;;;13.52;7.80;;;;;;;;;;4947488;28;20065;-89
2021/12/16 19:10:17;;;;;;;17.35;9.32;;;;;;;;;;4983583;28;20066;-90
2021/12/16 19:12:43;;;;;;;14.20;7.95;;;;;;;;;;4985159;28;20471;-89
2021/12/16 19:15:08;;;;;;;13.55;7.88;;;;;;;;;;4982927;28;20042;-89
2021/12/16 19:17:33;;;;;;;10.60;6.93;;;;;;;;;;4999037;28;20041;-90
2021/12/16 19:20:01;;;;;;;10.63;6.30;;;;;;;;;;5000233;28;20475;-90
2021/12/16 19:22:26;;;;;;;10.25;6.55;;;;;;;;;;5001431;28;20038;-89
2021/12/16 19:24:52;;;;;;;11.07;6.90;;;;;;;;;;4983330;28;20038;-89
2021/12/16 19:27:17;;;;;;;11.75;6.75;;;;;;;;;;5000427;28;20046;-90
2021/12/16 19:29:42;;;;;;;11.02;6.68;;;;;;;;;;4983479;28;20502;-90
2021/12/16 19:32:08;;;;;;;10.15;6.43;;;;;;;;;;4983245;28;20124;-89
2021/12/16 19:34:33;;;;;;;11.52;6.25;;;;;;;;;;4983442;28;20505;-90
2021/12/16 19:36:58;;;;;;;10.60;6.53;;;;;;;;;;4982757;28;20034;-89
2021/12/16 19:39:24;;;;;;;10.20;6.43;;;;;;;;;;4983667;28;20465;-90
2021/12/16 19:41:51;;;;;;;9.48;6.00;;;;;;;;;;4999644;28;20039;-89
2021/12/16 19:44:16;;;;;;;8.98;5.90;;;;;;;;;;4982921;28;20034;-89
2021/12/16 19:46:41;;;;;;;9.48;5.93;;;;;;;;;;4983724;28;20062;-89
2021/12/16 19:49:08;;;;;;;8.20;5.32;;;;;;;;;;4983938;28;20609;-89
2021/12/16 19:51:34;;;;;;;12.20;6.15;;;;;;;;;;4984368;28;20042;-91
2021/12/16 19:53:59;;;;;;;10.23;6.15;;;;;;;;;;4984062;28;20038;-90
2021/12/16 19:56:25;;;;;;;9.95;6.15;;;;;;;;;;4983407;28;20018;-89
2021/12/16 19:58:50;;;;;;;10.57;6.60;;;;;;;;;;4983763;28;20062;-88
2021/12/16 20:01:15;;;;;;;9.75;6.22;;;;;;;;;;4982494;28;20038;-89
2021/12/16 20:03:41;;;;;;;13.95;7.18;;;;;;;;;;4999514;28;20041;-91
2021/12/16 20:06:06;;;;;;;14.70;7.05;;;;;;;;;;4983811;28;20096;-89
2021/12/16 20:08:34;;;;;;;10.77;6.40;;;;;;;;;;4983316;28;20151;-89
2021/12/16 20:10:59;;;;;;;10.95;6.65;;;;;;;;;;4982231;28;20037;-90
2021/12/16 20:13:24;;;;;;;10.93;6.47;;;;;;;;;;4981742;28;20031;-89
2021/12/16 20:15:50;;;;;;;11.48;6.57;;;;;;;;;;4981236;28;20367;-90
2021/12/16 20:18:15;;;;;;;11.23;6.43;;;;;;;;;;4982593;28;20042;-90
2021/12/16 20:20:40;;;;;;;9.80;6.15;;;;;;;;;;4982167;28;20036;-89
2021/12/16 20:23:07;;;;;;;10.85;6.60;;;;;;;;;;4981392;28;20044;-89
2021/12/16 20:25:32;;;;;;;11.05;7.00;;;;;;;;;;4981278;28;20046;-90
2021/12/16 20:27:58;;;;;;;12.65;6.95;;;;;;;;;;4965986;28;20041;-89
2021/12/16 20:30:23;;;;;;;12.73;6.75;;;;;;;;;;4999254;28;20034;-89
2021/12/16 20:32:48;;;;;;;12.98;7.03;;;;;;;;;;4981890;28;20121;-89
2021/12/16 20:35:14;;;;;;;13.63;8.00;;;;;;;;;;4982584;28;20034;-89
2021/12/16 20:37:39;;;;;;;14.05;8.07;;;;;;;;;;4999361;28;20061;-89
2021/12/16 20:40:04;;;;;;;12.40;7.63;;;;;;;;;;4981999;28;20092;-89
2021/12/16 20:42:30;;;;;;;11.57;6.95;;;;;;;;;;4998621;28;20049;-89
2021/12/16 20:44:58;;;;;;;14.15;7.20;;;;;;;;;;4982429;28;20061;-89
2021/12/16 20:47:23;;;;;;;14.55;8.45;;;;;;;;;;4997782;28;20138;-89
2021/12/16 20:49:48;;;;;;;11.60;6.85;;;;;;;;;;4999376;28;20034;-88
2021/12/16 20:52:14;;;;;;;9.95;6.30;;;;;;;;;;4982009;28;20030;-88
2021/12/16 20:54:39;;;;;;;17.90;8.73;;;;;;;;;;4997583;28;20046;-89
2021/12/16 20:57:06;;;;;;;15.50;7.93;;;;;;;;;;4980906;28;20049;-89
2021/12/16 20:59:34;;;;;;;15.77;7.65;;;;;;;;;;4997509;28;20096;-89
2021/12/16 21:01:59;;;;;;;13.70;8.05;;;;;;;;;;4998207;28;20038;-89
2021/12/16 21:04:24;;;;;;;11.15;6.63;;;;;;;;;;4981787;28;20060;-89
2021/12/16 21:06:50;;;;;;;10.88;6.57;;;;;;;;;;4981231;28;20030;-88
2021/12/16 21:09:16;;;;;;;11.25;6.72;;;;;;;;;;4998937;28;20433;-89
2021/12/16 21:11:41;;;;;;;11.55;6.50;;;;;;;;;;4981788;28;20038;-90
2021/12/16 21:14:07;;;;;;;11.75;6.70;;;;;;;;;;4981801;28;20092;-90
2021/12/16 21:16:32;;;;;;;12.38;7.78;;;;;;;;;;4981432;28;20058;-92
2021/12/16 21:18:57;;;;;;;12.32;6.78;;;;;;;;;;4981812;28;20482;-90
2021/12/16 21:21:23;;;;;;;11.80;6.85;;;;;;;;;;4997510;28;20030;-91
2021/12/16 21:23:48;;;;;;;15.48;8.20;;;;;;;;;;4981200;28;20050;-90
2021/12/16 21:26:13;;;;;;;15.27;8.32;;;;;;;;;;4998352;28;20035;-89
2021/12/16 21:28:39;;;;;;;12.18;7.25;;;;;;;;;;4997222;28;20490;-89
2021/12/16 21:31:05;;;;;;;15.23;8.48;;;;;;;;;;4979937;28;20045;-89
2021/12/16 21:33:38;;;;;;;12.68;7.90;;;;;;;;;;4980487;28;20375;-89
2021/12/16 21:36:09;;;;;;;;;;;;;;;;;;4984319;28;20526;-89
2021/12/16 21:38:34;;;;;;;8.40;5.53;;;;;;;;;;4981066;28;19913;-89
2021/12/16 21:41:00;;;;;;;9.68;6.18;;;;;;;;;;4980695;28;20458;-91
2021/12/16 21:43:25;;;;;;;12.05;7.30;;;;;;;;;;4981278;28;20038;-90
2021/12/16 21:45:50;;;;;;;12.85;7.95;;;;;;;;;;4980855;28;20047;-90
2021/12/16 21:48:16;;;;;;;13.30;7.90;;;;;;;;;;4997274;28;20084;-91
2021/12/16 21:50:44;;;;;;;14.10;7.80;;;;;;;;;;4979964;28;20042;-90
2021/12/16 21:53:09;;;;;;;13.20;7.00;;;;;;;;;;4996773;28;20069;-89
2021/12/16 21:55:34;;;;;;;9.65;5.90;;;;;;;;;;4997152;28;20035;-90
2021/12/16 21:58:00;;;;;;;11.77;6.53;;;;;;;;;;4980400;28;20069;-90
2021/12/16 22:00:25;;;;;;;14.35;7.65;;;;;;;;;;4980589;28;20026;-89
2021/12/16 22:02:50;;;;;;;19.00;9.70;;;;;;;;;;4996727;28;20172;-89
2021/12/16 22:05:17;;;;;;;12.55;7.53;;;;;;;;;;4994898;28;20034;-90
2021/12/16 22:07:43;;;;;;;11.85;7.20;;;;;;;;;;4996657;28;20081;-90
2021/12/16 22:10:10;;;;;;;9.90;6.80;;;;;;;;;;4979577;28;20038;-89
2021/12/16 22:12:35;;;;;;;10.32;6.38;;;;;;;;;;4980353;28;20034;-89
2021/12/16 22:15:01;;;;;;;12.10;7.35;;;;;;;;;;4979381;28;20042;-89
2021/12/16 22:17:26;;;;;;;13.30;7.60;;;;;;;;;;4997780;28;20133;-89
2021/12/16 22:19:51;;;;;;;11.48;6.78;;;;;;;;;;4967053;28;20410;-89
2021/12/16 22:22:17;;;;;;;14.30;7.80;;;;;;;;;;4981900;28;20038;-89
2021/12/16 22:24:43;;;;;;;15.77;7.90;;;;;;;;;;4980750;28;20069;-90
2021/12/16 22:27:08;;;;;;;15.18;7.80;;;;;;;;;;4997280;28;20038;-89
2021/12/16 22:29:33;;;;;;;12.30;6.97;;;;;;;;;;4997285;28;20035;-89
2021/12/16 22:31:59;;;;;;;9.57;6.22;;;;;;;;;;4981576;28;20038;-89
2021/12/16 22:34:24;;;;;;;10.40;6.25;;;;;;;;;;4981187;28;20030;-89
2021/12/16 22:36:50;;;;;;;8.20;5.57;;;;;;;;;;4964203;28;20165;-89
2021/12/16 22:39:15;;;;;;;9.40;6.18;;;;;;;;;;4980111;28;20030;-89
2021/12/16 22:41:40;;;;;;;11.00;6.28;;;;;;;;;;4980337;28;20061;-90
2021/12/16 22:44:06;;;;;;;11.05;6.30;;;;;;;;;;4979678;28;20038;-90
2021/12/16 22:46:31;;;;;;;11.25;6.30;;;;;;;;;;4980112;28;20034;-90
2021/12/16 22:48:56;;;;;;;11.48;6.55;;;;;;;;;;4995340;28;20038;-90
2021/12/16 22:51:22;;;;;;;13.70;7.80;;;;;;;;;;4995661;28;20507;-89
2021/12/16 22:53:47;;;;;;;13.85;7.18;;;;;;;;;;4995723;28;20034;-90
2021/12/16 22:56:12;;;;;;;12.43;7.00;;;;;;;;;;4996779;28;20073;-90
2021/12/16 22:58:38;;;;;;;12.75;7.10;;;;;;;;;;4995812;28;20066;-89
2021/12/16 23:01:03;;;;;;;13.45;7.38;;;;;;;;;;4980464;28;20030;-90
2021/12/16 23:03:29;;;;;;;14.45;7.45;;;;;;;;;;4978956;28;20081;-90
2021/12/16 23:05:54;;;;;;;13.00;6.88;;;;;;;;;;4994636;28;20108;-90
2021/12/16 23:08:19;;;;;;;14.70;7.28;;;;;;;;;;4996062;28;20030;-89
2021/12/16 23:10:45;;;;;;;11.15;6.50;;;;;;;;;;4996583;28;20057;-89
2021/12/16 23:13:10;;;;;;;9.10;5.47;;;;;;;;;;4979315;28;20034;-90
2021/12/16 23:22:44;;;;;;;8.07;5.20;;;;;;;;;;4978964;28;20042;-90
2021/12/16 23:23:39;;;;;;;7.43;4.97;;;;;;;;;;4982597;28;20038;-90
2021/12/16 23:26:05;;;;;;;7.20;4.85;;;;;;;;;;5000933;28;20033;-90
2021/12/16 23:28:30;;;;;;;7.80;5.00;;;;;;;;;;4999860;28;20038;-89
2021/12/16 23:30:55;;;;;;;8.38;5.00;;;;;;;;;;4981993;28;20041;-90
2021/12/16 23:33:21;;;;;;;9.20;4.97;;;;;;;;;;4982037;28;20057;-89
2021/12/16 23:35:46;;;;;;;7.82;5.15;;;;;;;;;;4981989;28;20045;-90
2021/12/16 23:38:36;;;;;;;8.82;5.10;;;;;;;;;;4981831;28;20038;-89
2021/12/16 23:41:06;;;;;;;6.85;4.85;;;;;;;;;;4997721;28;20379;-89